createdAt,value
2023-04-26T00:01:53.325Z,0.52
2023-04-26T00:04:25.878Z,0.50
2023-04-26T00:06:58.775Z,0.45
2023-04-26T00:09:30.856Z,0.50
2023-04-26T00:12:02.995Z,0.52
2023-04-26T00:14:34.818Z,0.40
2023-04-26T00:17:06.736Z,0.30
2023-04-26T00:19:39.695Z,0.40
2023-04-26T00:22:11.549Z,0.47
2023-04-26T00:24:43.628Z,0.50
2023-04-26T00:27:16.223Z,0.50
2023-04-26T00:29:48.114Z,0.32
2023-04-26T00:32:20.231Z,0.50
2023-04-26T00:34:52.154Z,0.50
2023-04-26T00:37:24.899Z,0.70
2023-04-26T00:39:57.449Z,0.40
2023-04-26T00:42:29.411Z,0.50
2023-04-26T00:45:01.390Z,0.30
2023-04-26T00:47:33.778Z,0.30
2023-04-26T00:50:08.102Z,0.32
2023-04-26T00:52:40.114Z,0.82
2023-04-26T00:55:12.299Z,0.40
2023-04-26T00:57:46.072Z,0.60
2023-04-26T01:00:17.989Z,0.40
2023-04-26T01:02:51.251Z,0.40
2023-04-26T01:05:23.290Z,0.38
2023-04-26T01:07:55.638Z,0.30
2023-04-26T01:10:29.260Z,0.45
2023-04-26T01:13:03.697Z,0.47
2023-04-26T01:15:36.252Z,0.50
2023-04-26T01:18:08.424Z,0.40
2023-04-26T01:20:41.811Z,0.50
2023-04-26T01:23:13.720Z,0.30
2023-04-26T01:25:45.821Z,0.57
2023-04-26T01:28:17.695Z,0.40
2023-04-26T01:30:49.896Z,0.47
2023-04-26T01:33:21.951Z,0.40
2023-04-26T01:35:53.922Z,0.60
2023-04-26T01:38:26.009Z,0.52
2023-04-26T01:40:59.402Z,0.50
2023-04-26T01:43:31.437Z,0.70
2023-04-26T01:46:03.337Z,0.70
2023-04-26T01:48:35.196Z,0.57
2023-04-26T01:51:07.616Z,0.70
2023-04-26T01:53:39.590Z,0.40
2023-04-26T01:56:11.476Z,0.40
2023-04-26T01:58:43.457Z,0.60
2023-04-26T02:01:15.377Z,0.50
2023-04-26T02:03:49.859Z,0.40
2023-04-26T02:06:24.554Z,0.40
2023-04-26T02:08:57.035Z,0.60
2023-04-26T02:11:28.834Z,0.40
2023-04-26T02:14:01.105Z,0.40
2023-04-26T02:16:33.228Z,0.40
2023-04-26T02:19:05.396Z,0.50
2023-04-26T02:21:55.749Z,0.50
2023-04-26T02:24:27.857Z,0.50
2023-04-26T02:27:03.774Z,0.40
2023-04-26T02:29:43.599Z,0.30
2023-04-26T02:32:16.786Z,0.40
2023-04-26T02:34:48.712Z,0.38
2023-04-26T02:37:22.170Z,0.50
2023-04-26T02:39:54.144Z,0.50
2023-04-26T02:42:26.594Z,0.40
2023-04-26T02:44:58.491Z,0.50
2023-04-26T02:47:31.143Z,0.82
2023-04-26T02:50:03.993Z,0.40
2023-04-26T02:52:37.246Z,0.40
2023-04-26T02:55:09.826Z,0.40
2023-04-26T02:57:42.259Z,0.50
2023-04-26T03:00:14.469Z,0.35
2023-04-26T03:02:46.569Z,0.40
2023-04-26T03:05:18.607Z,0.30
2023-04-26T03:07:50.659Z,0.40
2023-04-26T03:10:22.693Z,0.30
2023-04-26T03:12:54.608Z,0.40
2023-04-26T03:15:26.704Z,0.40
2023-04-26T03:17:58.719Z,0.50
2023-04-26T03:20:31.999Z,0.35
2023-04-26T03:23:04.305Z,0.32
2023-04-26T03:25:36.682Z,0.30
2023-04-26T03:28:08.550Z,0.50
2023-04-26T03:30:40.876Z,0.38
2023-04-26T03:33:13.619Z,0.30
2023-04-26T03:35:45.634Z,0.50
2023-04-26T03:38:17.916Z,0.40
2023-04-26T03:40:50.218Z,0.38
2023-04-26T03:43:22.085Z,0.50
2023-04-26T03:45:53.892Z,0.38
2023-04-26T03:48:25.924Z,0.60
2023-04-26T03:50:58.830Z,0.43
2023-04-26T03:53:31.002Z,0.30
2023-04-26T03:56:03.026Z,0.70
2023-04-26T03:58:37.135Z,0.40
2023-04-26T04:01:09.017Z,0.40
2023-04-26T04:03:41.703Z,0.50
2023-04-26T04:06:14.172Z,0.47
2023-04-26T04:08:48.215Z,0.40
2023-04-26T04:11:20.459Z,0.50
2023-04-26T04:13:52.356Z,0.40
2023-04-26T04:16:24.377Z,0.43
2023-04-26T04:18:56.452Z,0.50
2023-04-26T04:21:31.151Z,0.50
2023-04-26T04:24:04.046Z,0.52
2023-04-26T04:26:35.987Z,0.40
2023-04-26T04:29:11.354Z,0.47
2023-04-26T04:31:43.558Z,0.50
2023-04-26T04:34:17.060Z,0.55
2023-04-26T04:36:50.745Z,0.80
2023-04-26T04:39:22.906Z,0.50
2023-04-26T04:41:55.366Z,0.60
2023-04-26T04:44:28.572Z,0.57
2023-04-26T04:47:02.008Z,0.50
2023-04-26T04:49:33.873Z,0.60
2023-04-26T04:52:06.689Z,0.47
2023-04-26T04:54:39.434Z,0.40
2023-04-26T04:57:11.315Z,0.70
2023-04-26T04:59:43.609Z,0.60
2023-04-26T05:02:16.122Z,0.50
2023-04-26T05:04:48.372Z,1.58
2023-04-26T05:07:20.380Z,1.10
2023-04-26T05:09:56.578Z,0.65
2023-04-26T05:12:29.195Z,0.70
2023-04-26T05:15:01.451Z,0.90
2023-04-26T05:17:34.080Z,1.15
2023-04-26T05:20:15.234Z,0.77
2023-04-26T05:22:47.315Z,0.82
2023-04-26T05:25:20.259Z,1.00
2023-04-26T05:27:56.357Z,0.90
2023-04-26T05:30:39.431Z,0.73
2023-04-26T05:33:31.715Z,0.80
2023-04-26T05:36:21.346Z,0.80
2023-04-26T05:38:53.414Z,1.35
2023-04-26T05:41:25.362Z,0.85
2023-04-26T05:43:57.307Z,0.80
2023-04-26T05:46:29.274Z,0.80
2023-04-26T05:49:01.278Z,0.80
2023-04-26T05:51:33.593Z,0.85
2023-04-26T05:54:05.916Z,0.80
2023-04-26T05:56:37.866Z,0.98
2023-04-26T05:59:10.033Z,0.63
2023-04-26T06:01:41.893Z,0.80
2023-04-26T06:04:13.919Z,0.80
2023-04-26T06:07:04.684Z,0.73
2023-04-26T06:09:38.711Z,0.80
2023-04-26T06:12:10.612Z,0.95
2023-04-26T06:14:46.099Z,0.77
2023-04-26T06:17:22.552Z,1.08
2023-04-26T06:19:54.675Z,0.82
2023-04-26T06:22:27.074Z,0.80
2023-04-26T06:24:59.241Z,0.70
2023-04-26T06:27:32.144Z,0.70
2023-04-26T06:30:05.314Z,0.88
2023-04-26T06:32:41.374Z,1.27
2023-04-26T06:35:13.565Z,17.90
2023-04-26T06:37:45.591Z,0.98
2023-04-26T06:40:18.041Z,0.88
2023-04-26T06:42:50.048Z,1.40
2023-04-26T06:45:22.311Z,1.35
2023-04-26T06:47:54.733Z,1.50
2023-04-26T06:50:29.444Z,1.30
2023-04-26T06:53:01.345Z,1.42
2023-04-26T06:55:33.943Z,2.72
2023-04-26T06:58:06.125Z,1.13
2023-04-26T07:00:38.116Z,2.60
2023-04-26T07:03:10.104Z,1.25
2023-04-26T07:05:42.147Z,1.30
2023-04-26T07:08:14.086Z,0.88
2023-04-26T07:10:45.946Z,1.15
2023-04-26T07:13:17.833Z,0.70
2023-04-26T07:15:49.808Z,0.60
2023-04-26T07:18:21.676Z,0.75
2023-04-26T07:20:53.522Z,14.15
2023-04-26T07:23:25.416Z,2.38
2023-04-26T07:25:57.888Z,0.80
2023-04-26T07:28:32.792Z,0.80
2023-04-26T07:31:06.029Z,0.90
2023-04-26T07:33:39.841Z,1.10
2023-04-26T07:36:11.971Z,0.60
2023-04-26T07:38:43.914Z,0.73
2023-04-26T07:41:17.603Z,0.60
2023-04-26T07:43:49.753Z,0.75
2023-04-26T07:46:21.703Z,0.90
2023-04-26T07:48:53.608Z,0.98
2023-04-26T07:51:25.466Z,0.80
2023-04-26T07:53:57.415Z,0.85
2023-04-26T07:56:29.262Z,0.93
2023-04-26T07:59:01.198Z,0.80
2023-04-26T08:01:33.687Z,0.80
2023-04-26T08:04:05.904Z,0.82
2023-04-26T08:06:38.978Z,0.80
2023-04-26T08:09:11.355Z,0.82
2023-04-26T08:11:43.282Z,0.90
2023-04-26T08:14:15.252Z,0.80
2023-04-26T08:16:47.068Z,1.02
2023-04-26T08:19:18.983Z,0.90
2023-04-26T08:21:51.052Z,0.90
2023-04-26T08:24:23.068Z,1.00
2023-04-26T08:26:55.519Z,1.40
2023-04-26T08:29:28.028Z,0.88
2023-04-26T08:32:00.154Z,1.00
2023-04-26T08:34:32.144Z,0.63
2023-04-26T08:37:05.240Z,0.50
2023-04-26T08:39:37.087Z,0.40
2023-04-26T08:42:16.458Z,0.50
2023-04-26T08:44:48.779Z,0.50
2023-04-26T08:47:48.438Z,0.60
2023-04-26T08:50:22.567Z,0.55
2023-04-26T08:52:54.652Z,0.30
2023-04-26T08:55:27.826Z,0.50
2023-04-26T08:58:01.264Z,0.60
2023-04-26T09:00:33.252Z,0.45
2023-04-26T09:03:05.188Z,0.30
2023-04-26T09:05:39.262Z,0.40
2023-04-26T09:08:17.541Z,0.30
2023-04-26T09:10:49.465Z,0.50
2023-04-26T09:13:27.401Z,0.40
2023-04-26T09:15:59.352Z,2.38
2023-04-26T09:18:33.605Z,0.95
2023-04-26T09:21:07.677Z,0.57
2023-04-26T09:23:57.938Z,0.52
2023-04-26T09:26:29.989Z,0.50
2023-04-26T09:29:16.088Z,0.63
2023-04-26T09:31:50.240Z,0.40
2023-04-26T09:34:22.282Z,2.92
2023-04-26T09:36:57.155Z,0.45
2023-04-26T09:39:33.254Z,0.50
2023-04-26T09:42:06.005Z,0.40
2023-04-26T09:44:38.533Z,0.50
2023-04-26T09:47:12.097Z,0.70
2023-04-26T09:49:51.869Z,0.50
2023-04-26T09:52:23.974Z,1.00
2023-04-26T09:54:56.110Z,1.20
2023-04-26T09:57:27.970Z,0.70
2023-04-26T10:00:00.922Z,0.90
2023-04-26T10:02:33.211Z,1.10
2023-04-26T10:05:07.256Z,1.15
2023-04-26T10:07:41.383Z,1.60
2023-04-26T10:10:13.316Z,1.45
2023-04-26T10:12:46.529Z,1.65
2023-04-26T10:15:19.270Z,1.90
2023-04-26T10:17:52.194Z,1.60
2023-04-26T10:20:28.304Z,1.40
2023-04-26T10:23:02.802Z,1.70
2023-04-26T10:25:39.231Z,2.03
2023-04-26T10:28:11.537Z,1.88
2023-04-26T10:31:00.503Z,2.08
2023-04-26T10:33:32.413Z,1.73
2023-04-26T10:36:13.765Z,1.92
2023-04-26T10:39:21.956Z,2.08
2023-04-26T10:42:25.681Z,2.35
2023-04-26T10:45:22.060Z,2.65
2023-04-26T10:48:19.974Z,2.42
2023-04-26T10:51:13.215Z,2.70
2023-04-26T10:53:47.909Z,2.88
2023-04-26T10:56:31.822Z,1.95
2023-04-26T11:01:46.309Z,1.83
2023-04-26T11:04:18.609Z,2.45
2023-04-26T11:06:55.078Z,2.22
2023-04-26T11:09:42.416Z,2.13
2023-04-26T11:12:16.606Z,2.20
2023-04-26T11:14:48.555Z,2.85
2023-04-26T11:17:20.963Z,3.47
2023-04-26T11:19:52.990Z,2.88
2023-04-26T11:22:24.872Z,2.50
2023-04-26T11:24:56.739Z,2.40
2023-04-26T11:27:28.674Z,2.38
2023-04-26T11:30:04.571Z,2.08
2023-04-26T11:32:36.545Z,2.38
2023-04-26T11:35:09.436Z,2.58
2023-04-26T11:37:41.467Z,2.30
2023-04-26T11:40:16.990Z,2.20
2023-04-26T11:42:49.048Z,2.20
2023-04-26T11:45:20.951Z,2.92
2023-04-26T11:47:53.540Z,3.30
2023-04-26T11:50:27.190Z,3.28
2023-04-26T11:53:01.040Z,2.97
2023-04-26T11:55:34.334Z,3.08
2023-04-26T11:58:15.782Z,2.70
2023-04-26T12:01:02.006Z,2.78
2023-04-26T12:03:37.989Z,2.53
2023-04-26T12:06:10.572Z,2.20
2023-04-26T12:08:49.294Z,2.30
2023-04-26T12:11:24.441Z,2.70
2023-04-26T12:13:59.780Z,3.17
2023-04-26T12:16:32.148Z,3.13
2023-04-26T12:19:08.863Z,3.20
2023-04-26T12:21:42.712Z,2.60
2023-04-26T12:24:43.087Z,2.70
2023-04-26T12:27:21.315Z,1.60
2023-04-26T12:29:53.228Z,2.08
2023-04-26T12:32:25.647Z,2.10
2023-04-26T12:34:57.871Z,2.97
2023-04-26T12:37:29.765Z,3.30
2023-04-26T12:40:01.629Z,2.80
2023-04-26T12:42:33.554Z,4.00
2023-04-26T12:45:05.984Z,2.70
2023-04-26T12:47:37.947Z,4.10
2023-04-26T12:50:12.787Z,4.65
2023-04-26T12:52:45.555Z,4.97
2023-04-26T12:55:17.626Z,4.32
2023-04-26T12:57:49.539Z,3.72
2023-04-26T13:00:21.819Z,3.35
2023-04-26T13:02:53.915Z,3.90
2023-04-26T13:05:26.119Z,3.60
2023-04-26T13:07:58.274Z,3.47
2023-04-26T13:10:30.270Z,3.35
2023-04-26T13:13:02.308Z,4.47
2023-04-26T13:15:34.409Z,3.53
2023-04-26T13:18:06.598Z,3.63
2023-04-26T13:20:38.756Z,3.60
2023-04-26T13:23:11.612Z,3.40
2023-04-26T13:25:43.472Z,3.40
2023-04-26T13:28:15.724Z,3.50
2023-04-26T13:30:48.462Z,3.03
2023-04-26T13:33:21.470Z,4.05
2023-04-26T13:35:53.490Z,3.50
2023-04-26T13:38:26.880Z,2.80
2023-04-26T13:40:58.980Z,2.35
2023-04-26T13:43:31.209Z,2.80
2023-04-26T13:46:03.347Z,3.63
2023-04-26T13:48:35.162Z,2.40
2023-04-26T13:51:07.287Z,2.78
2023-04-26T13:53:39.781Z,2.47
2023-04-26T13:56:12.087Z,2.80
2023-04-26T13:58:44.448Z,2.22
2023-04-26T14:01:16.684Z,2.38
2023-04-26T14:03:49.054Z,2.28
2023-04-26T14:06:21.618Z,2.40
2023-04-26T14:08:53.931Z,2.58
2023-04-26T14:11:26.111Z,2.55
2023-04-26T14:13:58.497Z,2.00
2023-04-26T14:16:30.451Z,1.48
2023-04-26T14:19:02.538Z,1.50
2023-04-26T14:21:34.599Z,2.20
2023-04-26T14:24:07.853Z,2.20
2023-04-26T14:26:39.868Z,2.30
2023-04-26T14:29:12.392Z,2.00
2023-04-26T14:31:45.125Z,1.80
2023-04-26T14:34:17.433Z,1.83
2023-04-26T14:36:49.492Z,1.75
2023-04-26T14:39:24.073Z,1.63
2023-04-26T14:41:56.919Z,1.70
2023-04-26T14:44:29.379Z,1.80
2023-04-26T14:47:01.580Z,1.75
2023-04-26T14:49:33.480Z,1.90
2023-04-26T14:52:05.470Z,1.90
2023-04-26T14:54:41.841Z,1.80
2023-04-26T14:57:13.872Z,2.50
2023-04-26T14:59:45.824Z,2.00
2023-04-26T15:02:17.828Z,1.95
2023-04-26T15:04:50.016Z,2.00
2023-04-26T15:07:31.328Z,1.90
2023-04-26T15:10:05.163Z,1.90
2023-04-26T15:12:37.356Z,1.88
2023-04-26T15:15:10.120Z,1.80
2023-04-26T15:17:42.145Z,1.67
2023-04-26T15:20:14.314Z,1.83
2023-04-26T15:22:46.648Z,1.80
2023-04-26T15:25:18.726Z,1.80
2023-04-26T15:27:50.759Z,1.92
2023-04-26T15:30:22.674Z,1.63
2023-04-26T15:32:54.556Z,1.52
2023-04-26T15:35:26.727Z,1.60
2023-04-26T15:37:58.728Z,1.90
2023-04-26T15:40:30.661Z,1.70
2023-04-26T15:43:03.000Z,2.10
2023-04-26T15:45:36.017Z,1.88
2023-04-26T15:48:08.192Z,1.80
2023-04-26T15:50:40.481Z,1.58
2023-04-26T15:53:12.468Z,2.05
2023-04-26T15:55:44.285Z,1.90
2023-04-26T15:58:16.576Z,2.00
2023-04-26T16:00:48.477Z,2.08
2023-04-26T16:03:20.697Z,1.80
2023-04-26T16:05:53.335Z,2.13
2023-04-26T16:08:39.435Z,2.00
2023-04-26T16:11:12.111Z,1.83
2023-04-26T16:13:44.655Z,2.45
2023-04-26T16:16:16.776Z,2.30
2023-04-26T16:18:48.704Z,2.47
2023-04-26T16:21:20.496Z,2.50
2023-04-26T16:23:53.594Z,1.90
2023-04-26T16:26:25.832Z,2.50
2023-04-26T16:28:57.778Z,2.30
2023-04-26T16:31:30.111Z,2.70
2023-04-26T16:34:02.062Z,2.40
2023-04-26T16:36:35.467Z,2.13
2023-04-26T16:39:07.809Z,1.90
2023-04-26T16:41:39.830Z,1.63
2023-04-26T16:44:11.750Z,1.73
2023-04-26T16:46:43.737Z,1.70
2023-04-26T16:49:16.144Z,1.48
2023-04-26T16:51:53.607Z,1.30
2023-04-26T16:54:28.741Z,1.73
2023-04-26T16:57:00.634Z,2.00
2023-04-26T16:59:32.837Z,4.40
2023-04-26T17:02:04.941Z,2.17
2023-04-26T17:04:37.193Z,4.93
2023-04-26T17:07:09.209Z,2.17
2023-04-26T17:09:41.106Z,5.82
2023-04-26T17:12:13.118Z,8.77
2023-04-26T17:14:45.003Z,6.88
2023-04-26T17:17:16.813Z,3.47
2023-04-26T17:19:48.909Z,2.90
2023-04-26T17:22:20.867Z,2.20
2023-04-26T17:24:52.780Z,2.83
2023-04-26T17:27:26.812Z,3.65
2023-04-26T17:29:58.837Z,2.30
2023-04-26T17:32:31.161Z,2.50
2023-04-26T17:35:04.208Z,1.92
2023-04-26T17:37:36.255Z,1.95
2023-04-26T17:40:09.038Z,2.60
2023-04-26T17:42:41.967Z,2.50
2023-04-26T17:45:14.639Z,3.50
2023-04-26T17:47:46.849Z,27.65
2023-04-26T17:50:21.137Z,36.35
2023-04-26T17:52:53.038Z,21.23
2023-04-26T17:55:24.872Z,7.80
2023-04-26T17:57:56.743Z,5.88
2023-04-26T18:00:28.669Z,7.07
2023-04-26T18:03:03.157Z,3.17
2023-04-26T18:05:35.068Z,2.63
2023-04-26T18:08:07.044Z,3.13
2023-04-26T18:10:38.911Z,3.20
2023-04-26T18:13:11.428Z,3.05
2023-04-26T18:15:43.302Z,3.55
2023-04-26T18:18:15.244Z,2.92
2023-04-26T18:20:47.207Z,2.20
2023-04-26T18:23:19.321Z,2.10
2023-04-26T18:25:51.899Z,2.17
2023-04-26T18:28:23.915Z,2.40
2023-04-26T18:30:59.982Z,2.40
2023-04-26T18:33:32.089Z,4.60
2023-04-26T18:36:04.744Z,5.30
2023-04-26T18:38:39.607Z,5.85
2023-04-26T18:41:12.065Z,6.00
2023-04-26T18:43:43.888Z,5.05
2023-04-26T18:46:15.956Z,4.80
2023-04-26T18:48:47.965Z,5.00
2023-04-26T18:51:19.962Z,4.40
2023-04-26T18:53:51.831Z,3.83
2023-04-26T18:56:23.974Z,4.30
2023-04-26T18:58:56.310Z,3.75
2023-04-26T19:01:28.245Z,3.38
2023-04-26T19:04:00.685Z,3.80
2023-04-26T19:06:33.156Z,2.88
2023-04-26T19:09:06.389Z,3.95
2023-04-26T19:11:38.573Z,4.05
2023-04-26T19:14:10.643Z,3.70
2023-04-26T19:16:42.684Z,5.30
2023-04-26T19:19:14.867Z,3.85
2023-04-26T19:21:46.967Z,3.58
2023-04-26T19:24:19.321Z,3.67
2023-04-26T19:26:51.349Z,3.88
2023-04-26T19:29:23.269Z,3.65
2023-04-26T19:31:55.150Z,4.07
2023-04-26T19:34:27.090Z,3.65
2023-04-26T19:36:59.109Z,3.53
2023-04-26T19:39:31.351Z,3.97
2023-04-26T19:42:03.563Z,3.90
2023-04-26T19:44:35.759Z,3.80
2023-04-26T19:47:08.746Z,4.25
2023-04-26T19:49:40.892Z,4.22
2023-04-26T19:52:13.537Z,5.03
2023-04-26T19:54:45.583Z,3.92
2023-04-26T19:57:17.480Z,3.88
2023-04-26T19:59:49.335Z,3.88
2023-04-26T20:02:21.293Z,4.20
2023-04-26T20:04:53.777Z,4.07
2023-04-26T20:07:25.884Z,4.07
2023-04-26T20:09:57.726Z,3.85
2023-04-26T20:12:30.328Z,4.03
2023-04-26T20:15:02.236Z,4.40
2023-04-26T20:17:34.286Z,4.18
2023-04-26T20:20:07.753Z,4.38
2023-04-26T20:22:43.497Z,4.13
2023-04-26T20:25:15.527Z,4.20
2023-04-26T20:27:47.912Z,3.97
2023-04-26T20:30:19.848Z,4.43
2023-04-26T20:32:51.894Z,4.47
2023-04-26T20:35:23.841Z,4.35
2023-04-26T20:37:55.687Z,4.97
2023-04-26T20:40:27.576Z,3.95
2023-04-26T20:42:59.470Z,4.45
2023-04-26T20:45:31.894Z,4.85
2023-04-26T20:48:04.018Z,5.28
2023-04-26T20:50:36.716Z,4.93
2023-04-26T20:53:08.816Z,5.93
2023-04-26T20:55:40.622Z,4.53
2023-04-26T20:58:12.432Z,3.95
2023-04-26T21:00:44.301Z,4.47
2023-04-26T21:03:16.400Z,4.10
2023-04-26T21:05:48.480Z,4.22
2023-04-26T21:08:20.331Z,4.05
2023-04-26T21:10:52.253Z,3.70
2023-04-26T21:13:24.097Z,4.22
2023-04-26T21:15:56.010Z,4.40
2023-04-26T21:18:27.935Z,3.95
2023-04-26T21:20:59.861Z,4.22
2023-04-26T21:23:31.843Z,3.30
2023-04-26T21:26:03.838Z,3.80
2023-04-26T21:28:35.822Z,3.70
2023-04-26T21:31:07.991Z,3.65
2023-04-26T21:33:39.882Z,3.75
2023-04-26T21:36:11.760Z,3.70
2023-04-26T21:38:43.693Z,3.63
2023-04-26T21:41:16.088Z,3.45
2023-04-26T21:43:48.099Z,3.50
2023-04-26T21:46:20.016Z,3.67
2023-04-26T21:48:52.024Z,3.30
2023-04-26T21:51:24.546Z,3.60
2023-04-26T21:53:56.468Z,3.65
2023-04-26T21:56:28.295Z,3.60
2023-04-26T21:59:00.198Z,3.97
2023-04-26T22:01:32.105Z,3.63
2023-04-26T22:04:04.381Z,3.72
2023-04-26T22:06:36.232Z,4.13
2023-04-26T22:09:10.278Z,3.65
2023-04-26T22:11:42.284Z,3.30
2023-04-26T22:14:14.192Z,3.70
2023-04-26T22:16:46.380Z,3.63
2023-04-26T22:19:18.344Z,3.70
2023-04-26T22:21:50.383Z,3.63
2023-04-26T22:24:22.397Z,3.28
2023-04-26T22:26:54.362Z,3.55
2023-04-26T22:29:26.304Z,3.20
2023-04-26T22:31:58.145Z,3.00
2023-04-26T22:34:30.101Z,3.30
2023-04-26T22:37:17.281Z,3.22
2023-04-26T22:39:53.599Z,3.17
2023-04-26T22:42:25.516Z,3.20
2023-04-26T22:44:57.324Z,3.33
2023-04-26T22:47:29.377Z,2.95
2023-04-26T22:50:01.389Z,3.40
2023-04-26T22:52:33.352Z,3.20
2023-04-26T22:55:06.195Z,2.95
2023-04-26T22:57:38.059Z,3.15
2023-04-26T23:00:12.497Z,3.78
2023-04-26T23:02:44.732Z,3.67
2023-04-26T23:05:17.492Z,3.30
2023-04-26T23:07:49.414Z,3.42
2023-04-26T23:10:21.570Z,3.35
2023-04-26T23:12:53.651Z,3.65
2023-04-26T23:15:25.676Z,3.38
2023-04-26T23:17:57.860Z,3.25
2023-04-26T23:20:30.086Z,3.22
2023-04-26T23:23:01.933Z,3.60
2023-04-26T23:25:33.860Z,3.10
2023-04-26T23:28:05.897Z,3.30
2023-04-26T23:30:37.767Z,3.78
2023-04-26T23:33:09.626Z,3.25
2023-04-26T23:35:42.314Z,3.35
2023-04-26T23:38:14.196Z,3.42
2023-04-26T23:40:46.317Z,3.20
2023-04-26T23:43:18.220Z,3.40
2023-04-26T23:45:50.180Z,3.30
2023-04-26T23:48:21.993Z,3.28
2023-04-26T23:50:53.840Z,3.38
2023-04-26T23:53:27.680Z,3.03
2023-04-26T23:55:59.549Z,3.63
2023-04-26T23:58:31.420Z,3.00
